createdAt,value
2022-09-07T00:02:14.157Z,86.24
2022-09-07T00:04:40.736Z,86.87
2022-09-07T00:07:07.271Z,87.87
2022-09-07T00:09:33.779Z,88.43
2022-09-07T00:12:00.311Z,87.58
2022-09-07T00:14:26.869Z,88.64
2022-09-07T00:16:53.412Z,88.88
2022-09-07T00:19:19.950Z,88.91
2022-09-07T00:21:46.491Z,89.50
2022-09-07T00:24:13.192Z,89.15
2022-09-07T00:26:40.224Z,89.27
2022-09-07T00:29:07.964Z,90.39
2022-09-07T00:31:35.538Z,90.38
2022-09-07T00:34:03.032Z,88.72
2022-09-07T00:36:30.241Z,88.90
2022-09-07T00:38:57.210Z,89.15
2022-09-07T00:41:24.686Z,89.55
2022-09-07T00:43:54.460Z,89.38
2022-09-07T00:46:29.447Z,89.60
2022-09-07T00:49:01.799Z,90.28
2022-09-07T00:51:52.607Z,90.89
2022-09-07T00:54:24.735Z,91.68
2022-09-07T00:56:52.938Z,91.50
2022-09-07T00:59:25.136Z,91.31
2022-09-07T01:01:51.987Z,91.63
2022-09-07T01:04:20.328Z,91.34
2022-09-07T01:06:46.919Z,91.37
2022-09-07T01:09:17.376Z,91.77
2022-09-07T01:11:50.701Z,91.91
2022-09-07T01:14:22.840Z,92.14
2022-09-07T01:16:57.344Z,92.62
2022-09-07T01:19:26.683Z,93.02
2022-09-07T01:22:28.211Z,93.04
2022-09-07T01:25:10.067Z,92.90
2022-09-07T01:27:54.254Z,93.25
2022-09-07T01:30:23.647Z,94.08
2022-09-07T01:33:14.910Z,93.95
2022-09-07T01:36:04.891Z,93.53
2022-09-07T01:38:35.711Z,94.41
2022-09-07T01:41:24.999Z,93.97
2022-09-07T01:44:24.798Z,93.55
2022-09-07T01:47:01.476Z,93.63
2022-09-07T01:49:43.394Z,93.76
2022-09-07T01:52:44.493Z,93.71
2022-09-07T01:55:21.070Z,92.88
2022-09-07T01:57:59.420Z,92.48
2022-09-07T02:00:26.217Z,92.24
2022-09-07T02:02:56.861Z,91.59
2022-09-07T02:05:27.636Z,91.85
2022-09-07T02:08:00.852Z,91.93
2022-09-07T02:10:38.319Z,91.52
2022-09-07T02:13:19.211Z,91.40
2022-09-07T02:15:57.961Z,92.03
2022-09-07T02:18:26.611Z,91.62
2022-09-07T02:20:57.675Z,91.17
2022-09-07T02:23:37.793Z,91.07
2022-09-07T02:26:10.381Z,90.36
2022-09-07T02:28:38.791Z,90.49
2022-09-07T02:31:06.170Z,90.10
2022-09-07T02:33:33.214Z,89.89
2022-09-07T02:36:01.607Z,90.36
2022-09-07T02:38:28.210Z,90.30
2022-09-07T02:40:56.721Z,90.59
2022-09-07T02:43:25.094Z,90.10
2022-09-07T02:46:07.083Z,90.31
2022-09-07T02:49:02.203Z,90.04
2022-09-07T02:52:16.667Z,89.62
2022-09-07T02:55:24.046Z,89.46
2022-09-07T02:58:12.110Z,89.11
2022-09-07T03:00:57.142Z,88.19
2022-09-07T03:03:32.120Z,88.90
2022-09-07T03:06:06.994Z,88.77
2022-09-07T03:08:41.085Z,88.17
2022-09-07T03:11:08.603Z,88.38
2022-09-07T03:13:35.195Z,88.49
2022-09-07T03:16:02.173Z,88.61
2022-09-07T03:18:29.299Z,89.08
2022-09-07T03:20:56.859Z,88.81
2022-09-07T03:23:23.719Z,89.05
2022-09-07T03:25:50.559Z,88.89
2022-09-07T03:28:17.511Z,89.23
2022-09-07T03:30:46.234Z,89.32
2022-09-07T03:33:15.916Z,89.62
2022-09-07T03:35:46.778Z,89.79
2022-09-07T03:38:13.320Z,90.72
2022-09-07T03:40:39.963Z,90.56
2022-09-07T03:43:06.474Z,90.46
2022-09-07T03:45:32.976Z,90.78
2022-09-07T03:47:59.463Z,91.01
2022-09-07T03:50:26.026Z,90.96
2022-09-07T03:52:52.529Z,90.36
2022-09-07T03:55:19.060Z,91.58
2022-09-07T03:57:45.594Z,90.97
2022-09-07T04:00:12.682Z,90.40
2022-09-07T04:02:40.741Z,90.34
2022-09-07T04:05:07.714Z,89.24
2022-09-07T04:07:34.217Z,89.37
2022-09-07T04:10:00.734Z,88.48
2022-09-07T04:12:27.735Z,88.47
2022-09-07T04:14:54.334Z,88.77
2022-09-07T04:17:20.819Z,88.01
2022-09-07T04:19:47.372Z,87.69
2022-09-07T04:22:13.858Z,87.51
2022-09-07T04:24:40.364Z,86.72
2022-09-07T04:27:06.906Z,86.94
2022-09-07T04:29:33.468Z,86.75
2022-09-07T04:31:59.949Z,86.00
2022-09-07T04:34:26.476Z,85.61
2022-09-07T04:36:52.978Z,84.36
2022-09-07T04:39:19.558Z,83.59
2022-09-07T04:41:46.051Z,82.81
2022-09-07T04:44:16.653Z,81.35
2022-09-07T04:46:43.568Z,81.57
2022-09-07T04:49:11.978Z,81.13
2022-09-07T04:51:39.499Z,80.57
2022-09-07T04:54:07.050Z,79.04
2022-09-07T04:56:33.619Z,78.78
2022-09-07T04:59:01.915Z,77.88
2022-09-07T05:01:29.020Z,77.15
2022-09-07T05:03:55.604Z,75.35
2022-09-07T05:06:23.544Z,76.09
2022-09-07T05:08:52.883Z,74.11
2022-09-07T05:11:24.956Z,75.55
2022-09-07T05:13:56.999Z,75.65
2022-09-07T05:16:25.205Z,76.37
2022-09-07T05:18:53.749Z,76.73
2022-09-07T05:21:23.441Z,77.78
2022-09-07T05:23:52.006Z,78.10
2022-09-07T05:26:20.629Z,77.49
2022-09-07T05:28:47.274Z,74.51
2022-09-07T05:36:39.722Z,68.11
2022-09-07T05:39:07.452Z,66.17
2022-09-07T05:41:34.317Z,64.70
2022-09-07T05:46:47.687Z,65.07
2022-09-07T05:49:14.227Z,62.84
2022-09-07T05:51:41.173Z,61.54
2022-09-07T05:54:07.685Z,61.67
2022-09-07T05:56:36.143Z,61.29
2022-09-07T05:59:02.990Z,60.29
2022-09-07T06:01:29.557Z,59.95
2022-09-07T06:03:56.064Z,59.34
2022-09-07T06:06:24.169Z,59.65
2022-09-07T06:08:52.828Z,56.42
2022-09-07T06:11:23.983Z,55.39
2022-09-07T06:13:51.947Z,54.38
2022-09-07T06:16:20.139Z,54.35
2022-09-07T06:18:48.918Z,54.34
2022-09-07T06:21:23.461Z,52.48
2022-09-07T06:23:50.874Z,53.59
2022-09-07T06:26:19.524Z,51.91
2022-09-07T06:28:50.245Z,51.54
2022-09-07T06:31:22.158Z,50.75
2022-09-07T06:33:49.515Z,53.18
2022-09-07T06:36:25.247Z,53.11
2022-09-07T06:38:51.797Z,53.02
2022-09-07T06:44:11.157Z,53.57
2022-09-07T06:49:25.548Z,50.71
2022-09-07T06:51:52.220Z,50.64
2022-09-07T06:57:09.439Z,53.21
2022-09-07T06:59:36.784Z,48.83
2022-09-07T07:02:04.282Z,47.41
2022-09-07T07:04:31.113Z,46.01
2022-09-07T07:06:58.367Z,45.20
2022-09-07T07:09:24.911Z,42.25
2022-09-07T07:11:51.506Z,44.83
2022-09-07T07:14:18.477Z,43.81
2022-09-07T07:16:45.281Z,42.95
2022-09-07T07:19:11.876Z,42.36
2022-09-07T07:22:03.521Z,42.13
2022-09-07T07:24:24.911Z,42.15
2022-09-07T07:26:51.604Z,43.68
2022-09-07T07:29:18.990Z,42.84
2022-09-07T07:31:47.422Z,40.80
2022-09-07T07:34:15.153Z,42.86
2022-09-07T07:36:41.893Z,41.66
2022-09-07T07:41:58.732Z,44.49
2022-09-07T07:44:28.269Z,42.74
2022-09-07T07:46:54.782Z,42.71
2022-09-07T07:49:21.445Z,46.69
2022-09-07T07:54:37.434Z,45.55
2022-09-07T07:57:06.851Z,47.31
2022-09-07T07:59:33.936Z,43.31
2022-09-07T08:02:05.304Z,42.05
2022-09-07T08:04:33.289Z,39.46
2022-09-07T08:07:00.347Z,41.12
2022-09-07T08:09:26.984Z,42.56
2022-09-07T08:11:53.589Z,42.53
2022-09-07T08:14:20.108Z,41.27
2022-09-07T08:16:46.738Z,41.41
2022-09-07T08:19:13.390Z,43.71
2022-09-07T08:21:40.017Z,46.25
2022-09-07T08:24:07.091Z,48.22
2022-09-07T08:26:33.590Z,48.55
2022-09-07T08:29:00.422Z,48.58
2022-09-07T08:31:27.218Z,48.52
2022-09-07T08:33:53.766Z,48.82
2022-09-07T08:36:21.107Z,44.80
2022-09-07T08:38:48.148Z,42.20
2022-09-07T08:41:44.224Z,43.83
2022-09-07T08:44:22.279Z,45.11
2022-09-07T08:46:56.453Z,45.84
2022-09-07T08:49:45.383Z,47.58
2022-09-07T08:52:29.260Z,44.88
2022-09-07T08:55:03.712Z,46.70
2022-09-07T08:57:35.438Z,48.42
2022-09-07T09:00:07.908Z,50.32
2022-09-07T09:02:40.309Z,49.72
2022-09-07T09:05:51.826Z,50.36
2022-09-07T09:08:24.781Z,48.48
2022-09-07T09:11:09.576Z,46.54
2022-09-07T09:13:55.097Z,48.53
2022-09-07T09:16:43.649Z,48.29
2022-09-07T09:19:31.964Z,48.45
2022-09-07T09:22:13.644Z,47.14
2022-09-07T09:24:47.459Z,48.18
2022-09-07T09:27:14.383Z,47.48
2022-09-07T09:29:41.252Z,45.32
2022-09-07T09:32:35.435Z,46.51
2022-09-07T09:35:11.733Z,45.11
2022-09-07T09:37:39.912Z,43.10
2022-09-07T09:40:17.499Z,46.65
2022-09-07T09:42:44.618Z,46.90
2022-09-07T09:45:29.974Z,46.36
2022-09-07T09:47:57.820Z,46.58
2022-09-07T09:53:27.790Z,46.95
2022-09-07T09:55:55.042Z,47.42
2022-09-07T10:01:27.116Z,42.71
2022-09-07T10:06:21.334Z,44.10
2022-09-07T10:09:05.885Z,43.30
2022-09-07T10:12:07.841Z,42.49
2022-09-07T10:14:46.551Z,39.97
2022-09-07T10:17:33.494Z,38.55
2022-09-07T10:20:02.690Z,39.85
2022-09-07T10:22:36.673Z,44.21
2022-09-07T10:25:25.282Z,44.10
2022-09-07T10:28:18.535Z,44.82
2022-09-07T10:31:03.488Z,43.57
2022-09-07T10:37:08.418Z,40.41
2022-09-07T10:39:42.192Z,42.18
2022-09-07T10:42:21.908Z,46.80
2022-09-07T10:45:05.837Z,46.41
2022-09-07T10:47:55.041Z,44.88
2022-09-07T10:50:41.680Z,45.77
2022-09-07T10:53:42.749Z,47.31
2022-09-07T10:56:20.106Z,46.46
2022-09-07T10:59:24.814Z,47.86
2022-09-07T11:02:13.560Z,43.36
2022-09-07T11:05:16.484Z,43.84
2022-09-07T11:07:45.850Z,41.98
2022-09-07T11:10:24.633Z,45.13
2022-09-07T11:12:54.021Z,45.65
2022-09-07T11:15:32.789Z,45.06
2022-09-07T11:18:12.119Z,44.54
2022-09-07T11:20:55.338Z,42.70
2022-09-07T11:23:21.883Z,43.25
2022-09-07T11:26:18.701Z,44.14
2022-09-07T11:31:50.794Z,46.11
2022-09-07T11:34:29.118Z,48.68
2022-09-07T11:37:02.368Z,46.22
2022-09-07T11:39:41.399Z,45.48
2022-09-07T11:45:19.910Z,42.98
2022-09-07T11:48:00.927Z,44.65
2022-09-07T11:50:31.548Z,46.32
2022-09-07T11:53:07.546Z,45.54
2022-09-07T11:55:40.819Z,47.03
2022-09-07T11:58:35.389Z,49.08
2022-09-07T12:01:23.533Z,49.78
2022-09-07T12:04:24.811Z,51.53
2022-09-07T12:07:01.890Z,51.66
2022-09-07T12:09:39.607Z,51.40
2022-09-07T12:12:24.233Z,52.39
2022-09-07T12:14:53.745Z,53.99
2022-09-07T12:17:54.088Z,53.69
2022-09-07T12:20:25.290Z,52.84
2022-09-07T12:23:05.357Z,53.14
2022-09-07T12:25:34.267Z,51.83
2022-09-07T12:28:01.446Z,53.39
2022-09-07T12:30:30.159Z,52.33
2022-09-07T12:32:58.397Z,52.67
2022-09-07T12:35:28.450Z,54.90
2022-09-07T12:37:56.174Z,54.09
2022-09-07T12:40:32.405Z,51.80
2022-09-07T12:43:17.127Z,52.42
2022-09-07T12:45:43.660Z,52.77
2022-09-07T12:48:44.351Z,53.38
2022-09-07T12:54:43.528Z,54.06
2022-09-07T12:57:42.102Z,54.94
2022-09-07T13:00:38.221Z,53.12
2022-09-07T13:09:34.390Z,54.64
2022-09-07T13:12:04.879Z,54.25
2022-09-07T13:14:34.809Z,52.99
2022-09-07T13:17:32.998Z,53.49
2022-09-07T13:19:59.567Z,53.72
2022-09-07T13:22:35.404Z,54.31
2022-09-07T13:25:27.200Z,54.87
2022-09-07T13:28:12.142Z,54.60
2022-09-07T13:30:53.545Z,54.95
2022-09-07T13:33:27.053Z,52.78
2022-09-07T13:36:00.318Z,52.64
2022-09-07T13:38:28.827Z,52.98
2022-09-07T13:41:04.480Z,54.00
2022-09-07T13:43:31.357Z,52.91
2022-09-07T13:46:02.684Z,53.17
2022-09-07T13:48:55.647Z,53.73
2022-09-07T13:51:32.092Z,53.96
2022-09-07T13:54:20.118Z,54.17
2022-09-07T13:56:54.505Z,53.44
2022-09-07T13:59:25.811Z,54.73
2022-09-07T14:01:53.064Z,53.08
2022-09-07T14:04:42.569Z,53.53
2022-09-07T14:07:35.166Z,54.30
2022-09-07T14:10:21.319Z,53.08
2022-09-07T14:12:52.019Z,52.70
2022-09-07T14:15:20.281Z,52.54
2022-09-07T14:17:47.787Z,53.29
2022-09-07T14:20:16.237Z,52.91
2022-09-07T14:22:44.038Z,53.50
2022-09-07T14:25:19.228Z,52.78
2022-09-07T14:27:49.654Z,52.65
2022-09-07T14:30:19.106Z,53.20
2022-09-07T14:33:20.217Z,53.23
2022-09-07T14:35:46.984Z,52.60
2022-09-07T14:38:13.691Z,53.17
2022-09-07T14:40:40.659Z,53.57
2022-09-07T14:43:34.523Z,52.44
2022-09-07T14:46:24.917Z,53.50
2022-09-07T14:48:55.247Z,53.52
2022-09-07T14:51:36.205Z,53.46
2022-09-07T14:54:06.064Z,53.53
2022-09-07T14:56:40.999Z,53.56
2022-09-07T14:59:40.676Z,53.96
2022-09-07T15:02:19.132Z,53.53
2022-09-07T15:04:47.476Z,53.34
2022-09-07T15:07:39.666Z,53.69
2022-09-07T15:10:36.880Z,54.26
2022-09-07T15:13:06.226Z,54.15
2022-09-07T15:15:37.136Z,54.43
2022-09-07T15:18:25.262Z,53.65
2022-09-07T15:20:52.902Z,53.87
2022-09-07T15:23:20.023Z,54.18
2022-09-07T15:25:53.711Z,53.95
2022-09-07T15:34:02.665Z,55.31
2022-09-07T15:36:32.061Z,55.66
2022-09-07T15:38:59.938Z,56.34
2022-09-07T15:41:27.774Z,56.76
2022-09-07T15:43:54.340Z,56.53
2022-09-07T15:46:20.891Z,57.29
2022-09-07T15:48:52.705Z,57.03
2022-09-07T15:54:11.539Z,59.49
2022-09-07T15:56:38.915Z,59.94
2022-09-07T15:59:05.799Z,60.01
2022-09-07T16:04:23.986Z,60.75
2022-09-07T16:06:50.907Z,61.40
2022-09-07T16:09:21.118Z,61.68
2022-09-07T16:11:50.113Z,62.65
2022-09-07T16:14:17.387Z,63.31
2022-09-07T16:19:34.611Z,63.30
2022-09-07T16:22:01.926Z,63.43
2022-09-07T16:24:28.470Z,64.13
2022-09-07T16:26:55.425Z,65.01
2022-09-07T16:29:22.483Z,65.81
2022-09-07T16:34:35.592Z,66.53
2022-09-07T16:37:02.440Z,66.02
2022-09-07T16:39:32.198Z,66.56
2022-09-07T16:42:00.055Z,67.09
2022-09-07T16:44:27.057Z,67.48
2022-09-07T16:46:53.612Z,67.48
2022-09-07T16:49:20.259Z,67.39
2022-09-07T16:51:46.799Z,67.46
2022-09-07T16:54:15.765Z,67.78
2022-09-07T16:56:42.270Z,68.29
2022-09-07T16:59:15.958Z,68.75
2022-09-07T17:01:43.092Z,68.65
2022-09-07T17:04:11.242Z,68.89
2022-09-07T17:06:39.907Z,69.24
2022-09-07T17:09:07.211Z,69.62
2022-09-07T17:11:35.955Z,69.79
2022-09-07T17:14:05.108Z,70.35
2022-09-07T17:16:34.438Z,70.46
2022-09-07T17:21:51.821Z,71.43
2022-09-07T17:24:19.691Z,71.86
2022-09-07T17:26:46.580Z,72.13
2022-09-07T17:29:13.454Z,72.83
2022-09-07T17:34:26.940Z,73.05
2022-09-07T17:36:53.419Z,72.92
2022-09-07T17:39:20.190Z,72.78
2022-09-07T17:41:48.389Z,72.83
2022-09-07T17:44:15.519Z,72.64
2022-09-07T17:46:42.234Z,72.94
2022-09-07T17:49:12.343Z,72.87
2022-09-07T17:51:39.440Z,73.42
2022-09-07T17:54:11.376Z,73.69
2022-09-07T17:56:39.364Z,73.97
2022-09-07T18:01:53.956Z,73.54
2022-09-07T18:04:20.583Z,73.28
2022-09-07T18:06:47.108Z,73.55
2022-09-07T18:09:14.028Z,73.61
2022-09-07T18:11:49.811Z,74.12
2022-09-07T18:14:17.296Z,74.04
2022-09-07T18:16:45.735Z,73.98
2022-09-07T18:19:12.853Z,74.28
2022-09-07T18:21:42.388Z,74.00
2022-09-07T18:24:16.649Z,74.23
2022-09-07T18:26:44.736Z,74.36
2022-09-07T18:29:28.123Z,74.48
2022-09-07T18:31:56.503Z,74.70
2022-09-07T18:34:23.166Z,74.98
2022-09-07T18:36:49.920Z,74.91
2022-09-07T18:39:16.573Z,75.36
2022-09-07T18:41:43.086Z,75.82
2022-09-07T18:46:56.282Z,76.21
2022-09-07T18:49:23.519Z,76.63
2022-09-07T18:54:37.849Z,77.54
2022-09-07T18:57:04.431Z,78.08
2022-09-07T18:59:30.943Z,78.40
2022-09-07T19:02:01.492Z,78.74
2022-09-07T19:07:17.692Z,79.41
2022-09-07T19:09:44.177Z,80.20
2022-09-07T19:12:10.660Z,80.25
2022-09-07T19:14:37.220Z,80.81
2022-09-07T19:17:03.775Z,81.62
2022-09-07T19:19:30.297Z,81.96
2022-09-07T19:21:57.843Z,82.05
2022-09-07T19:24:25.736Z,82.83
2022-09-07T19:26:55.724Z,82.97
2022-09-07T19:29:24.652Z,82.81
2022-09-07T19:32:07.061Z,83.49
2022-09-07T19:34:42.176Z,83.50
2022-09-07T19:37:10.870Z,83.19
2022-09-07T19:39:37.873Z,83.32
2022-09-07T19:42:05.403Z,83.77
2022-09-07T19:44:32.340Z,82.90
2022-09-07T19:47:00.142Z,83.23
2022-09-07T19:49:27.143Z,82.73
2022-09-07T19:51:53.632Z,82.48
2022-09-07T19:54:20.141Z,82.58
2022-09-07T19:56:46.665Z,82.58
2022-09-07T19:59:13.515Z,82.22
2022-09-07T20:01:43.802Z,82.13
2022-09-07T20:04:15.994Z,82.27
2022-09-07T20:06:48.127Z,82.35
2022-09-07T20:09:14.626Z,82.07
2022-09-07T20:11:46.027Z,81.69
2022-09-07T20:14:14.475Z,81.88
2022-09-07T20:16:41.761Z,82.02
2022-09-07T20:19:08.700Z,81.98
2022-09-07T20:21:36.848Z,82.17
2022-09-07T20:24:03.937Z,82.38
2022-09-07T20:26:32.242Z,82.88
2022-09-07T20:29:23.314Z,82.97
2022-09-07T20:31:46.862Z,83.06
2022-09-07T20:34:13.630Z,83.50
2022-09-07T20:36:40.148Z,83.01
2022-09-07T20:39:06.694Z,83.42
2022-09-07T20:41:34.116Z,83.69
2022-09-07T20:44:02.697Z,83.55
2022-09-07T20:46:30.330Z,83.43
2022-09-07T20:48:57.300Z,83.88
2022-09-07T20:51:23.966Z,84.66
2022-09-07T20:53:51.000Z,84.96
2022-09-07T20:56:20.253Z,85.55
2022-09-07T20:58:53.304Z,85.06
2022-09-07T21:01:21.247Z,85.73
2022-09-07T21:03:50.067Z,85.41
2022-09-07T21:06:17.422Z,86.06
2022-09-07T21:08:45.468Z,86.40
2022-09-07T21:11:15.397Z,85.79
2022-09-07T21:13:43.089Z,86.26
2022-09-07T21:16:12.651Z,86.59
2022-09-07T21:18:39.899Z,86.73
2022-09-07T21:21:22.147Z,87.67
2022-09-07T21:23:55.272Z,88.02
2022-09-07T21:26:21.814Z,88.06
2022-09-07T21:28:48.627Z,88.32
2022-09-07T21:31:15.156Z,88.72
2022-09-07T21:33:41.789Z,88.56
2022-09-07T21:36:11.208Z,88.47
2022-09-07T21:38:38.922Z,88.54
2022-09-07T21:41:07.384Z,88.89
2022-09-07T21:43:34.226Z,88.88
2022-09-07T21:46:31.194Z,89.60
2022-09-07T21:48:59.370Z,89.22
2022-09-07T21:51:26.822Z,89.61
2022-09-07T21:53:58.686Z,89.50
2022-09-07T21:56:26.624Z,90.40
2022-09-07T21:58:55.668Z,90.25
2022-09-07T22:01:23.974Z,90.72
2022-09-07T22:04:04.933Z,90.60
2022-09-07T22:06:32.426Z,90.43
2022-09-07T22:08:59.409Z,90.51
2022-09-07T22:11:28.603Z,91.04
2022-09-07T22:14:01.806Z,91.81
2022-09-07T22:16:29.015Z,91.51
2022-09-07T22:18:55.899Z,92.01
2022-09-07T22:21:25.163Z,92.76
2022-09-07T22:23:56.002Z,92.89
2022-09-07T22:26:24.471Z,93.68
2022-09-07T22:28:51.052Z,94.36
2022-09-07T22:31:20.559Z,95.44
2022-09-07T22:33:48.671Z,96.28
2022-09-07T22:36:24.544Z,97.44
2022-09-07T22:38:52.687Z,97.94
2022-09-07T22:41:24.633Z,98.99
2022-09-07T22:43:51.226Z,99.52
2022-09-07T22:46:20.351Z,99.67
2022-09-07T22:48:47.219Z,100.00
2022-09-07T22:51:13.793Z,100.00
2022-09-07T22:53:42.692Z,100.00
2022-09-07T22:56:14.678Z,100.00
2022-09-07T22:58:49.242Z,100.00
2022-09-07T23:01:16.182Z,100.00
2022-09-07T23:03:43.980Z,100.00
2022-09-07T23:06:22.696Z,100.00
2022-09-07T23:08:50.775Z,100.00
2022-09-07T23:11:17.543Z,100.00
2022-09-07T23:13:44.798Z,100.00
2022-09-07T23:16:12.300Z,100.00
2022-09-07T23:18:40.760Z,100.00
2022-09-07T23:21:08.181Z,100.00
2022-09-07T23:23:34.918Z,100.00
2022-09-07T23:26:05.470Z,100.00
2022-09-07T23:28:32.225Z,100.00
2022-09-07T23:30:59.129Z,100.00
2022-09-07T23:33:26.263Z,100.00
2022-09-07T23:36:06.937Z,100.00
2022-09-07T23:38:33.753Z,100.00
2022-09-07T23:41:00.470Z,100.00
2022-09-07T23:43:28.806Z,100.00
2022-09-07T23:45:55.913Z,100.00
2022-09-07T23:48:23.063Z,100.00
2022-09-07T23:50:50.319Z,100.00
2022-09-07T23:53:20.362Z,100.00
2022-09-07T23:55:52.528Z,100.00
2022-09-07T23:58:23.809Z,100.00
